sensor_id;sensor_type;location;lat;lon;timestamp;temperature;humidity
5419;DHT22;2732;52.092;11.556;2024-01-07T00:03:11;0.60;99.90
5419;DHT22;2732;52.092;11.556;2024-01-07T00:08:12;0.60;99.90
5419;DHT22;2732;52.092;11.556;2024-01-07T00:13:12;0.60;99.90
5419;DHT22;2732;52.092;11.556;2024-01-07T00:18:13;0.60;99.90
5419;DHT22;2732;52.092;11.556;2024-01-07T00:23:13;0.60;99.90
5419;DHT22;2732;52.092;11.556;2024-01-07T00:28:14;0.60;99.90
5419;DHT22;2732;52.092;11.556;2024-01-07T00:33:15;0.50;99.90
5419;DHT22;2732;52.092;11.556;2024-01-07T00:38:15;0.50;99.90
5419;DHT22;2732;52.092;11.556;2024-01-07T00:43:16;0.50;99.90
5419;DHT22;2732;52.092;11.556;2024-01-07T00:48:16;0.50;99.90
5419;DHT22;2732;52.092;11.556;2024-01-07T00:53:17;0.50;99.90
5419;DHT22;2732;52.092;11.556;2024-01-07T00:58:18;0.50;99.90
5419;DHT22;2732;52.092;11.556;2024-01-07T01:03:18;0.40;99.90
5419;DHT22;2732;52.092;11.556;2024-01-07T01:08:19;0.40;99.90
5419;DHT22;2732;52.092;11.556;2024-01-07T01:13:19;0.40;99.90
5419;DHT22;2732;52.092;11.556;2024-01-07T01:18:20;0.40;99.90
5419;DHT22;2732;52.092;11.556;2024-01-07T01:23:21;0.40;99.90
5419;DHT22;2732;52.092;11.556;2024-01-07T01:28:21;0.40;99.90
5419;DHT22;2732;52.092;11.556;2024-01-07T01:33:22;0.30;99.90
5419;DHT22;2732;52.092;11.556;2024-01-07T01:38:22;0.30;99.90
5419;DHT22;2732;52.092;11.556;2024-01-07T01:43:24;0.30;99.90
5419;DHT22;2732;52.092;11.556;2024-01-07T01:48:26;0.30;99.90
5419;DHT22;2732;52.092;11.556;2024-01-07T01:53:28;0.20;99.90
5419;DHT22;2732;52.092;11.556;2024-01-07T01:58:29;0.20;99.90
5419;DHT22;2732;52.092;11.556;2024-01-07T02:03:30;0.20;99.90
5419;DHT22;2732;52.092;11.556;2024-01-07T02:08:31;0.20;99.90
5419;DHT22;2732;52.092;11.556;2024-01-07T02:13:32;0.20;99.90
5419;DHT22;2732;52.092;11.556;2024-01-07T02:18:33;0.10;99.90
5419;DHT22;2732;52.092;11.556;2024-01-07T02:23:34;0.10;99.90
5419;DHT22;2732;52.092;11.556;2024-01-07T02:28:34;0.00;99.90
5419;DHT22;2732;52.092;11.556;2024-01-07T02:33:35;0.00;99.90
5419;DHT22;2732;52.092;11.556;2024-01-07T02:38:36;0.00;99.90
5419;DHT22;2732;52.092;11.556;2024-01-07T02:43:36;0.00;99.90
5419;DHT22;2732;52.092;11.556;2024-01-07T02:48:38;0.00;99.90
5419;DHT22;2732;52.092;11.556;2024-01-07T02:53:39;0.00;99.90
5419;DHT22;2732;52.092;11.556;2024-01-07T02:58:39;-0.10;99.90
5419;DHT22;2732;52.092;11.556;2024-01-07T03:03:40;-0.10;99.90
5419;DHT22;2732;52.092;11.556;2024-01-07T03:08:42;-0.10;99.90
5419;DHT22;2732;52.092;11.556;2024-01-07T03:13:43;-0.10;99.90
5419;DHT22;2732;52.092;11.556;2024-01-07T03:18:44;-0.20;99.90
5419;DHT22;2732;52.092;11.556;2024-01-07T03:23:44;-0.20;99.90
5419;DHT22;2732;52.092;11.556;2024-01-07T03:28:45;-0.20;99.90
5419;DHT22;2732;52.092;11.556;2024-01-07T03:33:46;-0.20;99.90
5419;DHT22;2732;52.092;11.556;2024-01-07T03:38:46;-0.30;99.90
5419;DHT22;2732;52.092;11.556;2024-01-07T03:43:48;-0.30;99.90
5419;DHT22;2732;52.092;11.556;2024-01-07T03:48:49;-0.30;99.90
5419;DHT22;2732;52.092;11.556;2024-01-07T03:53:49;-0.30;99.90
5419;DHT22;2732;52.092;11.556;2024-01-07T03:58:50;-0.30;99.90
5419;DHT22;2732;52.092;11.556;2024-01-07T04:03:51;-0.40;99.90
5419;DHT22;2732;52.092;11.556;2024-01-07T04:08:52;-0.40;99.90
5419;DHT22;2732;52.092;11.556;2024-01-07T04:13:52;-0.40;99.90
5419;DHT22;2732;52.092;11.556;2024-01-07T04:18:53;-0.50;99.90
5419;DHT22;2732;52.092;11.556;2024-01-07T04:23:54;-0.50;99.90
5419;DHT22;2732;52.092;11.556;2024-01-07T04:28:54;-0.50;99.90
5419;DHT22;2732;52.092;11.556;2024-01-07T04:33:55;-0.50;99.90
5419;DHT22;2732;52.092;11.556;2024-01-07T04:38:55;-0.60;99.90
5419;DHT22;2732;52.092;11.556;2024-01-07T04:43:56;-0.60;99.90
5419;DHT22;2732;52.092;11.556;2024-01-07T04:48:57;-0.60;99.90
5419;DHT22;2732;52.092;11.556;2024-01-07T04:53:57;-0.60;99.90
5419;DHT22;2732;52.092;11.556;2024-01-07T04:58:58;-0.70;99.90
5419;DHT22;2732;52.092;11.556;2024-01-07T05:03:59;-0.70;99.90
5419;DHT22;2732;52.092;11.556;2024-01-07T05:08:59;-0.70;99.90
5419;DHT22;2732;52.092;11.556;2024-01-07T05:14:00;-0.70;99.90
5419;DHT22;2732;52.092;11.556;2024-01-07T05:19:00;-0.80;99.90
5419;DHT22;2732;52.092;11.556;2024-01-07T05:24:01;-0.80;99.90
5419;DHT22;2732;52.092;11.556;2024-01-07T05:29:02;-0.80;99.90
5419;DHT22;2732;52.092;11.556;2024-01-07T05:34:02;-0.80;99.90
5419;DHT22;2732;52.092;11.556;2024-01-07T05:39:04;-0.90;99.90
5419;DHT22;2732;52.092;11.556;2024-01-07T05:44:07;-0.90;99.90
5419;DHT22;2732;52.092;11.556;2024-01-07T05:49:10;-1.00;99.90
5419;DHT22;2732;52.092;11.556;2024-01-07T05:54:11;-1.00;99.90
5419;DHT22;2732;52.092;11.556;2024-01-07T05:59:11;-1.10;99.90
5419;DHT22;2732;52.092;11.556;2024-01-07T06:04:13;-1.10;99.90
5419;DHT22;2732;52.092;11.556;2024-01-07T06:09:13;-1.10;99.90
5419;DHT22;2732;52.092;11.556;2024-01-07T06:14:14;-1.10;99.90
5419;DHT22;2732;52.092;11.556;2024-01-07T06:19:16;-1.20;99.90
5419;DHT22;2732;52.092;11.556;2024-01-07T06:24:17;-1.20;99.90
5419;DHT22;2732;52.092;11.556;2024-01-07T06:29:18;-1.20;99.90
5419;DHT22;2732;52.092;11.556;2024-01-07T06:34:19;-1.30;99.90
5419;DHT22;2732;52.092;11.556;2024-01-07T06:39:19;-1.30;99.90
5419;DHT22;2732;52.092;11.556;2024-01-07T06:44:20;-1.30;99.90
5419;DHT22;2732;52.092;11.556;2024-01-07T06:49:21;-1.40;99.90
5419;DHT22;2732;52.092;11.556;2024-01-07T06:54:21;-1.40;99.90
5419;DHT22;2732;52.092;11.556;2024-01-07T06:59:22;-1.50;99.90
5419;DHT22;2732;52.092;11.556;2024-01-07T07:04:22;-1.50;99.90
5419;DHT22;2732;52.092;11.556;2024-01-07T07:09:23;-1.50;99.90
5419;DHT22;2732;52.092;11.556;2024-01-07T07:14:24;-1.60;99.90
5419;DHT22;2732;52.092;11.556;2024-01-07T07:19:24;-1.60;99.90
5419;DHT22;2732;52.092;11.556;2024-01-07T07:24:25;-1.60;99.90
5419;DHT22;2732;52.092;11.556;2024-01-07T07:29:26;-1.70;99.90
5419;DHT22;2732;52.092;11.556;2024-01-07T07:34:26;-1.70;99.90
5419;DHT22;2732;52.092;11.556;2024-01-07T07:39:27;-1.70;99.90
5419;DHT22;2732;52.092;11.556;2024-01-07T07:44:28;-1.80;99.90
5419;DHT22;2732;52.092;11.556;2024-01-07T07:49:28;-1.80;99.90
5419;DHT22;2732;52.092;11.556;2024-01-07T07:54:29;-1.80;99.90
5419;DHT22;2732;52.092;11.556;2024-01-07T07:59:30;-1.80;99.90
5419;DHT22;2732;52.092;11.556;2024-01-07T08:04:30;-1.80;99.90
5419;DHT22;2732;52.092;11.556;2024-01-07T08:09:31;-1.80;99.90
5419;DHT22;2732;52.092;11.556;2024-01-07T08:14:32;-1.80;99.90
5419;DHT22;2732;52.092;11.556;2024-01-07T08:19:33;-1.80;99.90
5419;DHT22;2732;52.092;11.556;2024-01-07T08:24:34;-1.70;99.90
5419;DHT22;2732;52.092;11.556;2024-01-07T08:29:34;-1.70;99.90
5419;DHT22;2732;52.092;11.556;2024-01-07T08:34:35;-1.70;99.90
5419;DHT22;2732;52.092;11.556;2024-01-07T08:39:36;-1.60;99.90
5419;DHT22;2732;52.092;11.556;2024-01-07T08:44:37;-1.60;99.90
5419;DHT22;2732;52.092;11.556;2024-01-07T08:49:39;-1.60;99.90
5419;DHT22;2732;52.092;11.556;2024-01-07T08:54:40;-1.50;99.90
5419;DHT22;2732;52.092;11.556;2024-01-07T08:59:40;-1.50;99.90
5419;DHT22;2732;52.092;11.556;2024-01-07T09:04:41;-1.50;99.90
5419;DHT22;2732;52.092;11.556;2024-01-07T09:09:42;-1.50;99.90
5419;DHT22;2732;52.092;11.556;2024-01-07T09:14:43;-1.40;99.90
5419;DHT22;2732;52.092;11.556;2024-01-07T09:19:44;-1.40;99.90
5419;DHT22;2732;52.092;11.556;2024-01-07T09:24:44;-1.40;99.90
5419;DHT22;2732;52.092;11.556;2024-01-07T09:29:45;-1.30;99.90
5419;DHT22;2732;52.092;11.556;2024-01-07T09:34:45;-1.30;99.90
5419;DHT22;2732;52.092;11.556;2024-01-07T09:39:46;-1.30;99.90
5419;DHT22;2732;52.092;11.556;2024-01-07T09:44:48;-1.20;99.90
5419;DHT22;2732;52.092;11.556;2024-01-07T09:49:51;-1.20;99.90
5419;DHT22;2732;52.092;11.556;2024-01-07T09:54:58;-1.20;99.90
5419;DHT22;2732;52.092;11.556;2024-01-07T10:00:01;-1.10;99.90
5419;DHT22;2732;52.092;11.556;2024-01-07T10:05:02;-1.10;99.90
5419;DHT22;2732;52.092;11.556;2024-01-07T10:10:16;-1.10;99.90
5419;DHT22;2732;52.092;11.556;2024-01-07T10:15:17;-1.00;99.90
5419;DHT22;2732;52.092;11.556;2024-01-07T10:20:20;-1.00;99.90
5419;DHT22;2732;52.092;11.556;2024-01-07T10:25:21;-1.00;99.90
5419;DHT22;2732;52.092;11.556;2024-01-07T10:30:21;-0.90;99.90
5419;DHT22;2732;52.092;11.556;2024-01-07T10:35:35;-0.90;99.90
5419;DHT22;2732;52.092;11.556;2024-01-07T10:40:37;-0.90;99.90
5419;DHT22;2732;52.092;11.556;2024-01-07T10:45:38;-0.80;99.90
5419;DHT22;2732;52.092;11.556;2024-01-07T10:50:40;-0.80;99.90
5419;DHT22;2732;52.092;11.556;2024-01-07T10:55:47;-0.80;99.90
5419;DHT22;2732;52.092;11.556;2024-01-07T11:00:53;-0.70;99.90
5419;DHT22;2732;52.092;11.556;2024-01-07T11:05:59;-0.70;99.90
5419;DHT22;2732;52.092;11.556;2024-01-07T11:11:12;-0.70;99.90
5419;DHT22;2732;52.092;11.556;2024-01-07T11:21:39;-0.60;99.90
5419;DHT22;2732;52.092;11.556;2024-01-07T11:26:40;-0.60;99.90
5419;DHT22;2732;52.092;11.556;2024-01-07T11:31:45;-0.60;99.90
5419;DHT22;2732;52.092;11.556;2024-01-07T11:36:50;-0.50;99.90
5419;DHT22;2732;52.092;11.556;2024-01-07T11:41:51;-0.50;99.90
5419;DHT22;2732;52.092;11.556;2024-01-07T11:46:52;-0.50;99.90
5419;DHT22;2732;52.092;11.556;2024-01-07T11:51:52;-0.50;99.90
5419;DHT22;2732;52.092;11.556;2024-01-07T11:56:54;-0.40;99.90
5419;DHT22;2732;52.092;11.556;2024-01-07T12:01:55;-0.40;99.90
5419;DHT22;2732;52.092;11.556;2024-01-07T12:06:55;-0.40;99.90
5419;DHT22;2732;52.092;11.556;2024-01-07T12:11:56;-0.40;99.90
5419;DHT22;2732;52.092;11.556;2024-01-07T12:16:57;-0.40;99.90
5419;DHT22;2732;52.092;11.556;2024-01-07T12:22:08;-0.30;99.90
5419;DHT22;2732;52.092;11.556;2024-01-07T12:27:09;-0.30;99.90
5419;DHT22;2732;52.092;11.556;2024-01-07T12:32:10;-0.30;99.90
5419;DHT22;2732;52.092;11.556;2024-01-07T12:37:14;-0.30;99.90
5419;DHT22;2732;52.092;11.556;2024-01-07T12:42:14;-0.30;99.90
5419;DHT22;2732;52.092;11.556;2024-01-07T12:47:16;-0.20;99.90
5419;DHT22;2732;52.092;11.556;2024-01-07T12:52:17;-0.20;99.90
5419;DHT22;2732;52.092;11.556;2024-01-07T12:57:17;-0.20;99.90
5419;DHT22;2732;52.092;11.556;2024-01-07T13:02:18;-0.20;99.90
5419;DHT22;2732;52.092;11.556;2024-01-07T13:07:18;-0.20;99.90
5419;DHT22;2732;52.092;11.556;2024-01-07T13:12:19;-0.20;99.90
5419;DHT22;2732;52.092;11.556;2024-01-07T13:17:20;-0.20;99.90
5419;DHT22;2732;52.092;11.556;2024-01-07T13:22:21;-0.20;99.90
5419;DHT22;2732;52.092;11.556;2024-01-07T13:27:22;-0.20;99.90
5419;DHT22;2732;52.092;11.556;2024-01-07T13:32:23;-0.20;99.90
5419;DHT22;2732;52.092;11.556;2024-01-07T13:37:24;-0.20;99.90
5419;DHT22;2732;52.092;11.556;2024-01-07T13:42:25;-0.20;99.90
5419;DHT22;2732;52.092;11.556;2024-01-07T13:47:26;-0.20;99.90
5419;DHT22;2732;52.092;11.556;2024-01-07T13:52:27;-0.20;99.90
5419;DHT22;2732;52.092;11.556;2024-01-07T13:57:30;-0.20;99.90
5419;DHT22;2732;52.092;11.556;2024-01-07T14:02:31;-0.20;99.90
5419;DHT22;2732;52.092;11.556;2024-01-07T14:07:32;-0.20;99.90
5419;DHT22;2732;52.092;11.556;2024-01-07T14:12:36;-0.20;99.90
5419;DHT22;2732;52.092;11.556;2024-01-07T14:17:37;-0.20;99.90
5419;DHT22;2732;52.092;11.556;2024-01-07T14:22:38;-0.20;99.90
5419;DHT22;2732;52.092;11.556;2024-01-07T14:27:39;-0.20;99.90
5419;DHT22;2732;52.092;11.556;2024-01-07T14:32:41;-0.20;99.90
5419;DHT22;2732;52.092;11.556;2024-01-07T14:37:41;-0.30;99.90
5419;DHT22;2732;52.092;11.556;2024-01-07T14:42:42;-0.30;99.90
5419;DHT22;2732;52.092;11.556;2024-01-07T14:47:44;-0.30;99.90
5419;DHT22;2732;52.092;11.556;2024-01-07T14:52:45;-0.30;99.90
5419;DHT22;2732;52.092;11.556;2024-01-07T14:57:45;-0.30;99.90
5419;DHT22;2732;52.092;11.556;2024-01-07T15:02:46;-0.30;99.90
5419;DHT22;2732;52.092;11.556;2024-01-07T15:07:46;-0.30;99.90
5419;DHT22;2732;52.092;11.556;2024-01-07T15:12:48;-0.30;99.90
5419;DHT22;2732;52.092;11.556;2024-01-07T15:17:50;-0.30;99.90
5419;DHT22;2732;52.092;11.556;2024-01-07T15:22:51;-0.30;99.90
5419;DHT22;2732;52.092;11.556;2024-01-07T15:27:52;-0.40;99.90
5419;DHT22;2732;52.092;11.556;2024-01-07T15:32:53;-0.40;99.90
5419;DHT22;2732;52.092;11.556;2024-01-07T15:37:54;-0.40;99.90
5419;DHT22;2732;52.092;11.556;2024-01-07T15:42:56;-0.40;99.90
5419;DHT22;2732;52.092;11.556;2024-01-07T15:47:59;-0.40;99.90
5419;DHT22;2732;52.092;11.556;2024-01-07T15:53:00;-0.40;99.90
5419;DHT22;2732;52.092;11.556;2024-01-07T15:58:02;-0.40;99.90
5419;DHT22;2732;52.092;11.556;2024-01-07T16:03:03;-0.40;99.90
5419;DHT22;2732;52.092;11.556;2024-01-07T16:08:03;-0.40;99.90
5419;DHT22;2732;52.092;11.556;2024-01-07T16:13:04;-0.40;99.90
5419;DHT22;2732;52.092;11.556;2024-01-07T16:18:05;-0.50;99.90
5419;DHT22;2732;52.092;11.556;2024-01-07T16:23:06;-0.50;99.90
5419;DHT22;2732;52.092;11.556;2024-01-07T16:28:06;-0.50;99.90
5419;DHT22;2732;52.092;11.556;2024-01-07T16:33:07;-0.60;99.90
5419;DHT22;2732;52.092;11.556;2024-01-07T16:38:11;-0.60;99.90
5419;DHT22;2732;52.092;11.556;2024-01-07T16:43:11;-0.60;99.90
5419;DHT22;2732;52.092;11.556;2024-01-07T16:48:12;-0.60;99.90
5419;DHT22;2732;52.092;11.556;2024-01-07T16:53:13;-0.60;99.90
5419;DHT22;2732;52.092;11.556;2024-01-07T16:58:14;-0.60;99.90
5419;DHT22;2732;52.092;11.556;2024-01-07T17:03:15;-0.60;99.90
5419;DHT22;2732;52.092;11.556;2024-01-07T17:08:15;-0.70;99.90
5419;DHT22;2732;52.092;11.556;2024-01-07T17:13:16;-0.60;99.90
5419;DHT22;2732;52.092;11.556;2024-01-07T17:18:17;-0.60;99.90
5419;DHT22;2732;52.092;11.556;2024-01-07T17:23:17;-0.70;99.90
5419;DHT22;2732;52.092;11.556;2024-01-07T17:28:21;-0.70;99.90
5419;DHT22;2732;52.092;11.556;2024-01-07T17:33:24;-0.70;99.90
5419;DHT22;2732;52.092;11.556;2024-01-07T17:38:24;-0.70;99.90
5419;DHT22;2732;52.092;11.556;2024-01-07T17:43:25;-0.70;99.90
5419;DHT22;2732;52.092;11.556;2024-01-07T17:48:26;-0.70;99.90
5419;DHT22;2732;52.092;11.556;2024-01-07T17:53:26;-0.70;99.90
5419;DHT22;2732;52.092;11.556;2024-01-07T17:58:28;-0.70;99.90
5419;DHT22;2732;52.092;11.556;2024-01-07T18:03:28;-0.70;99.90
5419;DHT22;2732;52.092;11.556;2024-01-07T18:08:29;-0.80;99.90
5419;DHT22;2732;52.092;11.556;2024-01-07T18:13:30;-0.70;99.90
5419;DHT22;2732;52.092;11.556;2024-01-07T18:18:32;-0.70;99.90
5419;DHT22;2732;52.092;11.556;2024-01-07T18:23:32;-0.80;99.90
5419;DHT22;2732;52.092;11.556;2024-01-07T18:28:33;-0.80;99.90
5419;DHT22;2732;52.092;11.556;2024-01-07T18:33:34;-0.80;99.90
5419;DHT22;2732;52.092;11.556;2024-01-07T18:38:36;-0.80;99.90
5419;DHT22;2732;52.092;11.556;2024-01-07T18:43:38;-0.80;99.90
5419;DHT22;2732;52.092;11.556;2024-01-07T18:48:38;-0.80;99.90
5419;DHT22;2732;52.092;11.556;2024-01-07T18:53:39;-0.80;99.90
5419;DHT22;2732;52.092;11.556;2024-01-07T18:58:40;-0.80;99.90
5419;DHT22;2732;52.092;11.556;2024-01-07T19:03:40;-0.80;99.90
5419;DHT22;2732;52.092;11.556;2024-01-07T19:08:41;-0.80;99.90
5419;DHT22;2732;52.092;11.556;2024-01-07T19:13:41;-0.80;99.90
5419;DHT22;2732;52.092;11.556;2024-01-07T19:18:42;-0.80;99.90
5419;DHT22;2732;52.092;11.556;2024-01-07T19:23:43;-0.80;99.90
5419;DHT22;2732;52.092;11.556;2024-01-07T19:28:44;-0.80;99.90
5419;DHT22;2732;52.092;11.556;2024-01-07T19:33:44;-0.80;99.90
5419;DHT22;2732;52.092;11.556;2024-01-07T19:38:45;-0.80;99.90
5419;DHT22;2732;52.092;11.556;2024-01-07T19:43:46;-0.90;99.90
5419;DHT22;2732;52.092;11.556;2024-01-07T19:48:47;-0.90;99.90
5419;DHT22;2732;52.092;11.556;2024-01-07T19:53:49;-0.90;99.90
5419;DHT22;2732;52.092;11.556;2024-01-07T19:58:50;-0.90;99.90
5419;DHT22;2732;52.092;11.556;2024-01-07T20:03:51;-0.90;99.90
5419;DHT22;2732;52.092;11.556;2024-01-07T20:08:52;-0.90;99.90
5419;DHT22;2732;52.092;11.556;2024-01-07T20:13:53;-1.00;99.90
5419;DHT22;2732;52.092;11.556;2024-01-07T20:18:53;-0.90;99.90
5419;DHT22;2732;52.092;11.556;2024-01-07T20:23:55;-0.90;99.90
5419;DHT22;2732;52.092;11.556;2024-01-07T20:29:00;-0.90;99.90
5419;DHT22;2732;52.092;11.556;2024-01-07T20:34:04;-0.90;99.90
5419;DHT22;2732;52.092;11.556;2024-01-07T20:39:07;-0.90;99.90
5419;DHT22;2732;52.092;11.556;2024-01-07T20:44:07;-0.90;99.90
5419;DHT22;2732;52.092;11.556;2024-01-07T20:49:10;-0.90;99.90
5419;DHT22;2732;52.092;11.556;2024-01-07T20:54:10;-0.90;99.90
5419;DHT22;2732;52.092;11.556;2024-01-07T20:59:11;-0.90;99.90
5419;DHT22;2732;52.092;11.556;2024-01-07T21:04:13;-0.90;99.90
5419;DHT22;2732;52.092;11.556;2024-01-07T21:09:14;-0.90;99.90
5419;DHT22;2732;52.092;11.556;2024-01-07T21:14:15;-0.90;99.90
5419;DHT22;2732;52.092;11.556;2024-01-07T21:19:15;-0.90;99.90
5419;DHT22;2732;52.092;11.556;2024-01-07T21:24:16;-0.90;99.90
5419;DHT22;2732;52.092;11.556;2024-01-07T21:29:17;-0.90;99.90
5419;DHT22;2732;52.092;11.556;2024-01-07T21:34:17;-0.90;99.90
5419;DHT22;2732;52.092;11.556;2024-01-07T21:39:18;-0.90;99.90
5419;DHT22;2732;52.092;11.556;2024-01-07T21:44:18;-0.90;99.90
5419;DHT22;2732;52.092;11.556;2024-01-07T21:49:21;-0.90;99.90
5419;DHT22;2732;52.092;11.556;2024-01-07T21:54:22;-0.90;99.90
5419;DHT22;2732;52.092;11.556;2024-01-07T21:59:22;-0.90;99.90
5419;DHT22;2732;52.092;11.556;2024-01-07T22:04:23;-0.90;99.90
5419;DHT22;2732;52.092;11.556;2024-01-07T22:09:24;-0.90;99.90
5419;DHT22;2732;52.092;11.556;2024-01-07T22:14:24;-0.90;99.90
5419;DHT22;2732;52.092;11.556;2024-01-07T22:19:25;-0.90;99.90
5419;DHT22;2732;52.092;11.556;2024-01-07T22:24:25;-0.90;99.90
5419;DHT22;2732;52.092;11.556;2024-01-07T22:29:26;-0.90;99.90
5419;DHT22;2732;52.092;11.556;2024-01-07T22:34:28;-0.90;99.90
5419;DHT22;2732;52.092;11.556;2024-01-07T22:39:29;-0.90;99.90
5419;DHT22;2732;52.092;11.556;2024-01-07T22:44:31;-0.90;99.90
5419;DHT22;2732;52.092;11.556;2024-01-07T22:49:32;-0.90;99.90
5419;DHT22;2732;52.092;11.556;2024-01-07T22:54:38;-0.90;99.90
5419;DHT22;2732;52.092;11.556;2024-01-07T22:59:39;-0.90;99.90
5419;DHT22;2732;52.092;11.556;2024-01-07T23:04:40;-0.90;99.90
5419;DHT22;2732;52.092;11.556;2024-01-07T23:09:40;-0.90;99.90
5419;DHT22;2732;52.092;11.556;2024-01-07T23:14:41;-0.90;99.90
5419;DHT22;2732;52.092;11.556;2024-01-07T23:19:42;-0.90;99.90
5419;DHT22;2732;52.092;11.556;2024-01-07T23:24:43;-0.90;99.90
5419;DHT22;2732;52.092;11.556;2024-01-07T23:29:43;-0.90;99.90
5419;DHT22;2732;52.092;11.556;2024-01-07T23:34:44;-0.90;99.90
5419;DHT22;2732;52.092;11.556;2024-01-07T23:39:45;-0.90;99.90
5419;DHT22;2732;52.092;11.556;2024-01-07T23:44:45;-1.00;99.90
5419;DHT22;2732;52.092;11.556;2024-01-07T23:49:46;-1.00;99.90
5419;DHT22;2732;52.092;11.556;2024-01-07T23:54:46;-1.00;99.90
5419;DHT22;2732;52.092;11.556;2024-01-07T23:59:47;-1.00;99.90
